createdAt,value
2022-07-31T00:02:46.883Z,5.07
2022-07-31T00:07:48.815Z,4.20
2022-07-31T00:12:51.397Z,4.90
2022-07-31T00:17:53.342Z,5.05
2022-07-31T00:22:55.353Z,5.20
2022-07-31T00:27:57.206Z,5.00
2022-07-31T00:32:59.194Z,4.80
2022-07-31T00:38:25.644Z,5.40
2022-07-31T00:43:23.433Z,5.70
2022-07-31T00:48:29.745Z,5.03
2022-07-31T00:53:31.572Z,5.10
2022-07-31T00:58:33.436Z,5.10
2022-07-31T01:03:35.725Z,4.88
2022-07-31T01:08:37.609Z,4.95
2022-07-31T01:13:48.586Z,5.35
2022-07-31T01:18:53.128Z,5.38
2022-07-31T01:24:26.723Z,5.50
2022-07-31T01:29:53.589Z,5.53
2022-07-31T01:35:07.888Z,6.00
2022-07-31T01:40:25.013Z,5.85
2022-07-31T01:45:29.168Z,5.68
2022-07-31T01:50:42.764Z,5.75
2022-07-31T01:56:01.955Z,6.10
2022-07-31T02:01:11.637Z,5.22
2022-07-31T02:06:18.792Z,6.57
2022-07-31T02:11:21.435Z,6.47
2022-07-31T02:16:24.829Z,6.28
2022-07-31T02:21:34.378Z,5.82
2022-07-31T02:26:38.246Z,5.57
2022-07-31T02:31:44.366Z,6.15
2022-07-31T02:36:47.308Z,6.55
2022-07-31T02:41:49.665Z,6.25
2022-07-31T02:46:52.141Z,6.20
2022-07-31T02:51:54.471Z,6.78
2022-07-31T02:56:58.065Z,6.53
2022-07-31T03:01:59.946Z,6.88
2022-07-31T03:07:04.602Z,6.68
2022-07-31T03:12:07.347Z,7.22
2022-07-31T03:17:09.751Z,7.53
2022-07-31T03:22:15.342Z,7.45
2022-07-31T03:27:17.576Z,7.22
2022-07-31T03:32:19.578Z,7.30
2022-07-31T03:37:21.625Z,6.55
2022-07-31T03:42:24.352Z,7.63
2022-07-31T03:47:26.370Z,6.80
2022-07-31T03:52:31.173Z,7.35
2022-07-31T03:57:34.095Z,7.25
2022-07-31T04:02:36.586Z,7.50
2022-07-31T04:07:44.426Z,7.82
2022-07-31T04:12:46.322Z,7.55
2022-07-31T04:17:48.997Z,7.20
2022-07-31T04:22:55.934Z,7.93
2022-07-31T04:28:18.048Z,7.32
2022-07-31T04:33:20.334Z,7.45
2022-07-31T04:38:22.394Z,6.82
2022-07-31T04:43:24.308Z,7.88
2022-07-31T04:48:26.526Z,7.00
2022-07-31T04:53:28.441Z,7.55
2022-07-31T04:58:30.521Z,7.72
2022-07-31T05:03:32.349Z,7.35
2022-07-31T05:08:34.270Z,7.10
2022-07-31T05:13:36.242Z,7.95
2022-07-31T05:18:38.187Z,6.60
2022-07-31T05:24:00.229Z,6.50
2022-07-31T05:29:23.590Z,5.70
2022-07-31T05:34:25.476Z,6.18
2022-07-31T05:39:29.234Z,5.88
2022-07-31T05:44:49.833Z,6.05
2022-07-31T05:49:51.906Z,5.70
2022-07-31T05:54:56.790Z,5.60
2022-07-31T06:00:17.570Z,6.22
2022-07-31T06:05:20.134Z,5.13
2022-07-31T06:10:22.611Z,4.70
2022-07-31T06:15:24.918Z,5.20
2022-07-31T06:20:27.357Z,5.60
2022-07-31T06:25:31.903Z,5.40
2022-07-31T06:30:41.197Z,5.80
2022-07-31T06:35:43.184Z,5.97
2022-07-31T06:41:03.629Z,7.05
2022-07-31T06:46:18.381Z,6.75
2022-07-31T06:51:39.045Z,6.70
2022-07-31T06:56:41.042Z,7.38
2022-07-31T07:01:43.545Z,7.65
2022-07-31T07:06:47.322Z,6.85
2022-07-31T07:11:54.472Z,6.38
2022-07-31T07:16:57.085Z,6.47
2022-07-31T07:21:58.952Z,6.00
2022-07-31T07:27:00.865Z,6.20
2022-07-31T07:32:03.209Z,6.20
2022-07-31T07:37:06.467Z,5.93
2022-07-31T07:42:09.106Z,5.97
2022-07-31T07:47:10.958Z,5.60
2022-07-31T07:52:13.140Z,5.45
2022-07-31T07:57:16.365Z,5.63
2022-07-31T08:02:36.786Z,5.75
2022-07-31T08:07:42.671Z,4.90
2022-07-31T08:13:03.243Z,5.47
2022-07-31T08:18:23.614Z,6.13
2022-07-31T08:23:30.558Z,5.40
2022-07-31T08:28:32.581Z,4.90
2022-07-31T08:33:34.793Z,5.93
2022-07-31T08:38:37.011Z,5.10
2022-07-31T08:44:04.492Z,4.70
2022-07-31T08:49:09.854Z,5.35
2022-07-31T08:54:18.957Z,5.25
2022-07-31T08:59:22.162Z,4.60
2022-07-31T09:04:24.785Z,4.97
2022-07-31T09:09:41.291Z,4.50
2022-07-31T09:14:49.726Z,4.20
2022-07-31T09:19:54.990Z,4.28
2022-07-31T09:25:15.930Z,4.70
2022-07-31T09:30:18.335Z,4.55
2022-07-31T09:35:39.791Z,5.22
2022-07-31T09:40:55.153Z,4.53
2022-07-31T09:46:21.266Z,4.53
2022-07-31T09:51:23.138Z,4.90
2022-07-31T09:56:35.132Z,4.53
2022-07-31T10:01:38.957Z,4.38
2022-07-31T10:06:42.352Z,4.63
2022-07-31T10:11:46.560Z,4.88
2022-07-31T10:16:59.025Z,4.43
2022-07-31T10:22:21.098Z,4.40
2022-07-31T10:27:24.746Z,14.35
2022-07-31T10:32:34.085Z,4.43
2022-07-31T10:38:17.147Z,3.67
2022-07-31T10:43:39.235Z,3.90
2022-07-31T10:48:57.760Z,4.32
2022-07-31T10:54:19.345Z,4.47
2022-07-31T10:59:46.289Z,3.85
2022-07-31T11:05:28.200Z,4.40
2022-07-31T11:10:51.364Z,3.33
2022-07-31T11:16:07.698Z,3.33
2022-07-31T11:21:48.018Z,3.22
2022-07-31T11:26:59.339Z,12.50
2022-07-31T11:32:22.911Z,3.47
2022-07-31T11:37:39.468Z,3.47
2022-07-31T11:43:10.689Z,3.10
2022-07-31T11:48:21.115Z,3.40
2022-07-31T11:53:23.201Z,3.30
2022-07-31T11:58:26.877Z,2.78
2022-07-31T12:03:37.897Z,2.83
2022-07-31T12:08:40.750Z,2.60
2022-07-31T12:13:46.473Z,2.03
2022-07-31T12:18:59.003Z,3.00
2022-07-31T12:24:03.169Z,2.90
2022-07-31T12:29:10.418Z,2.92
2022-07-31T12:34:12.700Z,3.33
2022-07-31T12:39:14.525Z,2.70
2022-07-31T12:44:21.475Z,2.88
2022-07-31T12:54:26.846Z,2.80
2022-07-31T12:59:28.714Z,2.72
2022-07-31T13:04:30.577Z,2.70
2022-07-31T13:09:32.390Z,3.58
2022-07-31T13:14:34.543Z,3.28
2022-07-31T13:19:36.398Z,3.65
2022-07-31T13:24:38.473Z,3.00
2022-07-31T13:29:40.326Z,2.88
2022-07-31T13:34:42.237Z,2.65
2022-07-31T13:39:44.139Z,2.33
2022-07-31T13:44:46.051Z,3.03
2022-07-31T13:49:47.925Z,3.28
2022-07-31T13:54:49.757Z,2.72
2022-07-31T13:59:51.602Z,2.70
2022-07-31T14:04:53.479Z,3.42
2022-07-31T14:09:56.905Z,3.00
2022-07-31T14:14:58.811Z,2.50
2022-07-31T14:20:00.732Z,2.53
2022-07-31T14:25:02.684Z,2.25
2022-07-31T14:30:09.329Z,2.22
2022-07-31T14:35:11.443Z,2.58
2022-07-31T14:40:13.997Z,2.30
2022-07-31T14:45:15.837Z,2.30
2022-07-31T14:50:19.772Z,2.25
2022-07-31T14:55:24.515Z,2.50
2022-07-31T15:00:26.525Z,2.30
2022-07-31T15:06:39.385Z,2.67
2022-07-31T15:10:50.250Z,2.90
2022-07-31T15:15:52.773Z,2.42
2022-07-31T15:20:54.627Z,2.60
2022-07-31T15:25:56.850Z,2.13
2022-07-31T15:31:01.344Z,1.98
2022-07-31T15:36:03.420Z,3.22
2022-07-31T15:41:05.526Z,2.58
2022-07-31T15:46:09.861Z,3.17
2022-07-31T15:51:11.776Z,3.38
2022-07-31T15:56:13.666Z,2.38
2022-07-31T16:01:15.587Z,2.83
2022-07-31T16:06:17.523Z,2.70
2022-07-31T16:11:20.417Z,2.90
2022-07-31T16:16:22.357Z,2.83
2022-07-31T16:21:24.235Z,2.50
2022-07-31T16:26:26.087Z,2.75
2022-07-31T16:31:29.955Z,2.78
2022-07-31T16:36:32.297Z,2.50
2022-07-31T16:41:34.139Z,2.80
2022-07-31T16:46:36.004Z,2.78
2022-07-31T16:51:38.073Z,2.70
2022-07-31T16:56:40.016Z,2.60
2022-07-31T17:01:59.308Z,3.10
2022-07-31T17:07:02.871Z,2.83
2022-07-31T17:12:05.637Z,3.10
2022-07-31T17:17:08.004Z,12.00
2022-07-31T17:22:11.389Z,4.25
2022-07-31T17:27:13.581Z,2.58
2022-07-31T17:32:17.111Z,2.47
2022-07-31T17:37:19.314Z,2.72
2022-07-31T17:42:24.902Z,3.00
2022-07-31T17:47:27.074Z,2.70
2022-07-31T17:52:28.884Z,2.72
2022-07-31T17:57:32.599Z,4.43
2022-07-31T18:02:35.015Z,3.17
2022-07-31T18:07:38.889Z,2.60
2022-07-31T18:12:58.147Z,2.60
2022-07-31T18:18:00.254Z,3.65
2022-07-31T18:23:02.227Z,2.90
2022-07-31T18:28:04.161Z,2.30
2022-07-31T18:33:06.129Z,2.90
2022-07-31T18:38:07.963Z,2.53
2022-07-31T18:43:11.004Z,2.40
2022-07-31T18:48:13.038Z,2.30
2022-07-31T18:53:16.173Z,3.00
2022-07-31T18:58:18.097Z,2.30
2022-07-31T19:03:19.932Z,2.40
2022-07-31T19:08:22.124Z,2.30
2022-07-31T19:13:23.977Z,3.40
2022-07-31T19:18:28.730Z,2.65
2022-07-31T19:23:30.980Z,2.85
2022-07-31T19:28:33.434Z,2.65
2022-07-31T19:33:35.679Z,2.53
2022-07-31T19:38:38.005Z,2.70
2022-07-31T19:43:39.876Z,2.60
2022-07-31T19:48:46.084Z,3.58
2022-07-31T19:53:48.067Z,4.90
2022-07-31T19:58:50.800Z,4.35
2022-07-31T20:03:57.284Z,3.65
2022-07-31T20:08:59.426Z,3.28
2022-07-31T20:14:01.347Z,2.80
2022-07-31T20:19:03.206Z,3.08
2022-07-31T20:24:05.610Z,2.75
2022-07-31T20:29:07.539Z,3.72
2022-07-31T20:34:09.460Z,3.17
2022-07-31T20:39:11.294Z,2.72
2022-07-31T20:44:13.203Z,2.58
2022-07-31T20:49:19.281Z,2.42
2022-07-31T20:54:34.357Z,3.03
2022-07-31T20:59:36.826Z,2.85
2022-07-31T21:04:38.659Z,2.58
2022-07-31T21:09:41.567Z,2.95
2022-07-31T21:14:43.490Z,2.72
2022-07-31T21:19:45.394Z,2.83
2022-07-31T21:24:47.514Z,2.90
2022-07-31T21:29:55.074Z,3.00
2022-07-31T21:40:00.650Z,2.65
2022-07-31T21:45:03.418Z,3.22
2022-07-31T21:50:09.388Z,2.60
2022-07-31T21:55:11.278Z,2.60
2022-07-31T22:00:14.160Z,2.70
2022-07-31T22:05:34.541Z,2.85
2022-07-31T22:10:36.374Z,2.70
2022-07-31T22:15:55.586Z,2.38
2022-07-31T22:21:04.581Z,2.50
2022-07-31T22:26:06.766Z,2.38
2022-07-31T22:31:10.338Z,3.03
2022-07-31T22:36:13.196Z,2.97
2022-07-31T22:41:15.258Z,2.17
2022-07-31T22:46:17.336Z,2.90
2022-07-31T22:51:19.240Z,2.67
2022-07-31T22:56:21.155Z,2.72
2022-07-31T23:01:23.067Z,2.65
2022-07-31T23:06:31.666Z,2.90
2022-07-31T23:11:34.733Z,2.45
2022-07-31T23:16:36.986Z,2.75
2022-07-31T23:21:38.805Z,2.70
2022-07-31T23:26:40.697Z,2.80
2022-07-31T23:31:42.549Z,2.80
2022-07-31T23:36:44.737Z,2.63
2022-07-31T23:42:18.623Z,3.00
2022-07-31T23:47:20.514Z,2.90
2022-07-31T23:52:22.854Z,3.03
2022-07-31T23:57:24.674Z,3.03
